Ashland, LA

4:24 PM CDT on September 02, 2014 (GMT -0500)
Natchitoches Regional | Change Station
CLOSE
Current Station
Airport
Location: Natchitoches,
Elevation: 118 ft
Nearby Weather Stations

Elev 118 ft 31.74 °N, 93.10 °W | Updated 9 minutes ago

Light Thunderstorms and Rain
Light Thunderstorm Rain
75 °F
Feels Like 75 °F
N
6
Wind Variable Wind from NE

Today
High -- | Low -- °F
--% Chance of Precip.
Yesterday
High -- | Low -- °F
Precip. -- in
6:48 AM 7:35 PM
First Quarter, 55% visible
Pressure 30.05 in
Visibility 7.0 miles
Clouds Scattered Clouds 4800 ft
Mostly Cloudy 6000 ft
Overcast 7000 ft
Dew Point 74 °F
Humidity 98%
Rainfall 0.00 in
Snow Depth Not available.
UV 2 out of 12
Pollen 9.50 out of 12
Air Quality Not available.
Flu Activity Not available.
METAR KIER 022115Z AUTO 05005KT 7SM -VCTSRA SCT048 BKN060 OVC070 24/24 A3005 RMK AO2 LTG DSNT ALQS T02390235

More Conditions Fewer Conditions

Pressure 30.05 in
Visibility 7.0 miles
Clouds Scattered Clouds 4800 ft
Mostly Cloudy 6000 ft
Overcast 7000 ft
Dew Point 74 °F
Humidity 98%
Rainfall 0.00 in
Snow Depth Not available.
UV 2 out of 12
Pollen 9.50 out of 12
Air Quality Not available.
Flu Activity Not available.
METAR KIER 022115Z AUTO 05005KT 7SM -VCTSRA SCT048 BKN060 OVC070 24/24 A3005 RMK AO2 LTG DSNT ALQS T02390235

More Conditions Fewer Conditions

Nowcast | as of 3:38 PM CDT on September 2, 2014

Scattered showers and thunderstorms will continue moving north across East Texas...north Louisiana and south central Arkansas through the early evening. A few storms could become quite strong... producing very heavy rain and wind gusts to 50 miles an hour. Deadly cloud to ground lightning will accompany this activity as it moves northeast at 15 to 20 mph.

×

10-Day Weather Forecast

Almanac

Astronomy

Sep. 02, 2014 Rise Set
Actual Time 6:48 AM CDT 7:35 PM CDT
Civil Twilight 6:23 AM CDT 8:00 PM CDT
Nautical Twilight 5:54 AM CDT 8:29 PM CDT
Astronomical Twilight 5:23 AM CDT 8:59 PM CDT
Moon 2:08 PM CDT 12:02 AM CDT
Length of Visible Light 13h 36m
Length of Day
12h 46m
Tomorrow will be 1m 53s shorter.
First Quarter, 55% of the Moon is Illuminated
Today
First Quarter
Sep 8
Full
Sep 15
Last Quarter
Sep 24
New
Oct 1
First Quarter

Today's Extremes

State Highs State Lows

Community

WunderPhotos

Upload Photos

1,749,769 photos uploaded!

Nearby

Snow Depth

Station Depth Elevation
No new snow has been reported.

Earthquake Activity

City Distance Mag. Time & Date
No recent earthquake activity has been reported nearby.
Minimum magnitude displayed is 2.5.

Coastal Water Temperatures

Place Temperature
No Stations Reporting

Nearby Weather Stations